Time;durP1;ratioP1;P1;durP2;ratioP2;P2;SDS_P1;SDS_P2;PMS_P1;PMS_P2;Temp;Humidity;BMP_temperature;BMP_pressure;BME280_temperature;BME280_humidity;BME280_pressure;Samples;Min_cycle;Max_cycle;Signal;HPM_P1;HPM_P2
2021/12/23 00:02:26;;;;;;;8.83;6.90;;;11.20;33.80;;;;;;5129276;27;46900;-28
2021/12/23 00:04:53;;;;;;;9.00;7.03;;;11.20;33.80;;;;;;5129046;27;47361;-28
2021/12/23 00:07:19;;;;;;;9.97;6.77;;;11.20;33.90;;;;;;5128916;27;48138;-27
2021/12/23 00:10:04;;;;;;;9.50;6.80;;;11.10;33.90;;;;;;5128874;27;46910;-28
2021/12/23 00:12:31;;;;;;;9.07;6.77;;;11.10;33.90;;;;;;5129096;27;46858;-28
2021/12/23 00:14:58;;;;;;;9.37;7.17;;;11.10;33.90;;;;;;5129025;27;47235;-28
2021/12/23 00:17:40;;;;;;;9.40;6.87;;;11.00;34.00;;;;;;5128908;27;47917;-17
2021/12/23 00:25:37;;;;;;;9.13;7.07;;;11.00;34.00;;;;;;5128610;27;46981;-17
2021/12/23 00:28:03;;;;;;;7.93;6.13;;;10.90;34.00;;;;;;5128594;27;46905;-18
2021/12/23 00:30:30;;;;;;;8.47;6.00;;;10.90;34.00;;;;;;5128377;27;46812;-18
2021/12/23 00:32:58;;;;;;;7.80;5.83;;;10.90;34.10;;;;;;5128707;27;46867;-28
2021/12/23 00:35:25;;;;;;;9.30;6.27;;;10.80;34.10;;;;;;5128699;27;47087;-28
2021/12/23 00:37:58;;;;;;;7.57;5.87;;;10.80;34.10;;;;;;5128518;27;46849;-28
2021/12/23 00:40:25;;;;;;;10.13;6.63;;;10.80;34.10;;;;;;5128228;27;47269;-28
2021/12/23 00:42:51;;;;;;;6.53;5.53;;;10.80;34.20;;;;;;5128245;27;46825;-28
2021/12/23 00:45:18;;;;;;;7.27;5.87;;;10.70;34.80;;;;;;5128002;27;46964;-18
2021/12/23 00:47:45;;;;;;;7.73;6.33;;;10.70;34.20;;;;;;5128385;27;49398;-18
2021/12/23 00:50:13;;;;;;;8.57;6.40;;;10.70;34.20;;;;;;5127932;27;47064;-28
2021/12/23 00:52:41;;;;;;;7.77;5.53;;;10.70;34.30;;;;;;5128510;27;46909;-17
2021/12/23 00:55:09;;;;;;;7.23;5.53;;;10.60;34.20;;;;;;5128109;27;47247;-28
2021/12/23 00:57:39;;;;;;;7.60;5.60;;;10.60;34.30;;;;;;5128263;27;48357;-18
2021/12/23 01:00:07;;;;;;;8.83;5.97;;;10.60;34.20;;;;;;5127740;27;47125;-29
2021/12/23 01:02:33;;;;;;;7.90;6.10;;;10.60;34.30;;;;;;5127338;27;46865;-18
2021/12/23 01:05:02;;;;;;;8.73;5.83;;;10.60;34.30;;;;;;5127918;27;46879;-17
2021/12/23 01:07:30;;;;;;;6.77;5.50;;;10.60;34.30;;;;;;5128030;27;48115;-18
2021/12/23 01:09:56;;;;;;;6.63;5.07;;;10.50;34.30;;;;;;5127635;27;46992;-17
2021/12/23 01:12:29;;;;;;;6.77;5.37;;;10.50;34.30;;;;;;5128099;27;46908;-17
2021/12/23 01:14:58;;;;;;;5.20;4.63;;;10.50;34.20;;;;;;5128017;27;46915;-28
2021/12/23 01:17:46;;;;;;;6.47;4.63;;;10.50;34.50;;;;;;5127911;27;47784;-16
2021/12/23 01:20:13;;;;;;;7.40;5.10;;;10.40;34.30;;;;;;5127676;27;46957;-28
2021/12/23 01:22:41;;;;;;;6.07;5.00;;;10.40;34.40;;;;;;5127697;27;46945;-28
2021/12/23 01:25:09;;;;;;;5.97;4.93;;;10.40;34.40;;;;;;5127826;27;47002;-18
2021/12/23 01:27:35;;;;;;;7.50;4.97;;;10.40;35.00;;;;;;5127484;27;47886;-17
2021/12/23 01:30:03;;;;;;;5.47;4.57;;;10.40;34.40;;;;;;5127660;27;46916;-28
2021/12/23 01:32:30;;;;;;;6.03;4.30;;;10.40;34.50;;;;;;5127775;27;46816;-28
2021/12/23 01:34:56;;;;;;;5.67;4.30;;;10.30;34.40;;;;;;5127620;27;46938;-17
2021/12/23 01:37:23;;;;;;;6.00;4.67;;;10.30;34.40;;;;;;5127565;27;49140;-28
2021/12/23 01:39:51;;;;;;;5.20;4.37;;;10.30;35.10;;;;;;5127652;27;46939;-28
2021/12/23 01:42:18;;;;;;;6.83;4.40;;;10.30;34.50;;;;;;5127383;27;46772;-17
2021/12/23 01:44:44;;;;;;;5.93;4.80;;;10.30;34.40;;;;;;5126840;27;46913;-28
2021/12/23 01:47:11;;;;;;;5.90;4.40;;;10.30;34.50;;;;;;5127375;27;48134;-28
2021/12/23 01:49:39;;;;;;;5.87;4.50;;;10.30;34.50;;;;;;5126974;27;46911;-17
2021/12/23 01:52:07;;;;;;;6.20;4.40;;;10.20;34.40;;;;;;5127586;27;46980;-28
2021/12/23 01:54:33;;;;;;;5.90;4.70;;;10.20;34.50;;;;;;5127308;27;47290;-28
2021/12/23 01:57:01;;;;;;;5.37;4.13;;;10.20;34.50;;;;;;5127033;27;48342;-18
2021/12/23 01:59:28;;;;;;;6.03;4.17;;;10.20;34.50;;;;;;5127408;27;47509;-18
2021/12/23 02:01:55;;;;;;;4.73;3.87;;;10.10;34.50;;;;;;5127359;27;46999;-17
2021/12/23 02:04:21;;;;;;;6.50;4.53;;;10.20;34.60;;;;;;5127388;27;47065;-17
2021/12/23 02:06:48;;;;;;;5.57;4.03;;;10.10;34.50;;;;;;5126721;27;48265;-28
2021/12/23 02:09:15;;;;;;;4.70;3.93;;;10.10;34.60;;;;;;5126955;27;47423;-28
2021/12/23 02:11:42;;;;;;;5.60;4.20;;;10.10;35.20;;;;;;5127249;27;46893;-28
2021/12/23 02:14:10;;;;;;;5.73;4.40;;;10.10;35.20;;;;;;5126518;27;46909;-17
2021/12/23 02:16:37;;;;;;;5.87;4.40;;;10.10;34.60;;;;;;5126959;27;47048;-18
2021/12/23 02:19:04;;;;;;;4.63;4.03;;;10.00;34.60;;;;;;5126856;27;47391;-17
2021/12/23 02:21:32;;;;;;;6.00;4.00;;;10.00;34.60;;;;;;5127245;27;46906;-18
2021/12/23 02:23:58;;;;;;;5.90;3.80;;;10.00;34.70;;;;;;5126870;27;46983;-28
2021/12/23 02:26:25;;;;;;;5.50;4.50;;;10.00;34.70;;;;;;5126844;27;47900;-18
2021/12/23 02:28:52;;;;;;;4.17;3.77;;;10.00;34.60;;;;;;5126470;27;46791;-28
2021/12/23 02:31:18;;;;;;;5.70;4.17;;;10.00;34.60;;;;;;5126878;27;46983;-28
2021/12/23 02:33:45;;;;;;;4.97;3.90;;;10.00;34.70;;;;;;5127124;27;47017;-28
2021/12/23 02:36:12;;;;;;;5.53;3.83;;;10.00;34.70;;;;;;5126662;27;48766;-18
2021/12/23 02:38:40;;;;;;;5.47;3.73;;;9.90;34.60;;;;;;5126401;27;47128;-28
2021/12/23 02:41:07;;;;;;;5.07;4.30;;;9.90;34.70;;;;;;5126764;27;46789;-28
2021/12/23 02:43:35;;;;;;;4.83;3.93;;;9.90;34.70;;;;;;5126721;27;46878;-28
2021/12/23 02:46:02;;;;;;;4.50;4.10;;;9.90;34.70;;;;;;5126531;27;49040;-17
2021/12/23 02:48:30;;;;;;;3.90;3.50;;;9.90;34.70;;;;;;5126493;27;46905;-28
2021/12/23 02:50:57;;;;;;;4.27;3.80;;;9.90;34.70;;;;;;5126390;27;46943;-28
2021/12/23 02:53:24;;;;;;;4.97;3.80;;;9.90;34.80;;;;;;5126860;27;46826;-28
2021/12/23 02:55:53;;;;;;;5.50;4.00;;;9.90;34.80;;;;;;5126471;27;48881;-28
2021/12/23 02:58:20;;;;;;;4.67;3.77;;;9.90;34.80;;;;;;5126681;27;47162;-17
2021/12/23 03:00:48;;;;;;;5.03;4.17;;;9.90;34.80;;;;;;5126441;27;46776;-17
2021/12/23 03:03:15;;;;;;;4.10;3.70;;;9.80;34.70;;;;;;5126754;27;46977;-17
2021/12/23 03:05:47;;;;;;;5.03;4.10;;;9.80;34.70;;;;;;5125877;27;47058;-28
2021/12/23 03:08:13;;;;;;;4.60;3.80;;;9.80;34.70;;;;;;5126271;27;46806;-18
2021/12/23 03:10:40;;;;;;;4.40;3.73;;;9.80;34.80;;;;;;5126286;27;47221;-17
2021/12/23 03:13:08;;;;;;;4.07;3.50;;;9.80;34.80;;;;;;5126501;27;46915;-18
2021/12/23 03:15:35;;;;;;;5.03;3.67;;;9.80;34.80;;;;;;5126102;27;49079;-29
2021/12/23 03:18:01;;;;;;;5.07;3.70;;;9.80;34.90;;;;;;5126135;27;46887;-28
2021/12/23 03:20:28;;;;;;;4.60;3.47;;;9.70;34.80;;;;;;5125737;27;46754;-18
2021/12/23 03:22:55;;;;;;;5.70;3.90;;;9.70;34.80;;;;;;5126147;27;47130;-18
2021/12/23 03:25:22;;;;;;;4.17;3.67;;;9.70;34.80;;;;;;5125815;27;47100;-28
2021/12/23 03:27:48;;;;;;;4.80;4.10;;;9.70;34.80;;;;;;5129735;27;46891;-18
2021/12/23 03:30:16;;;;;;;4.73;3.50;;;9.70;34.80;;;;;;5129578;27;46935;-28
2021/12/23 03:32:43;;;;;;;6.63;4.10;;;9.70;34.80;;;;;;5129941;27;46946;-28
2021/12/23 03:35:10;;;;;;;4.17;3.50;;;9.70;34.80;;;;;;5129414;27;48860;-28
2021/12/23 03:37:36;;;;;;;4.53;3.60;;;9.70;34.90;;;;;;5129863;27;46950;-28
2021/12/23 03:40:04;;;;;;;4.40;3.53;;;9.60;34.80;;;;;;5129053;27;46879;-18
2021/12/23 03:42:31;;;;;;;4.83;3.57;;;9.60;34.80;;;;;;5129965;27;46975;-17
2021/12/23 03:44:57;;;;;;;4.43;3.67;;;9.60;34.90;;;;;;5128904;27;49131;-18
2021/12/23 03:47:26;;;;;;;5.03;3.80;;;9.60;34.80;;;;;;5129125;27;46966;-28
2021/12/23 03:49:52;;;;;;;5.53;3.70;;;9.60;34.90;;;;;;5129240;27;46870;-29
2021/12/23 03:52:19;;;;;;;4.03;3.17;;;9.60;34.90;;;;;;5129265;27;46827;-29
2021/12/23 03:54:46;;;;;;;4.17;3.47;;;9.60;34.90;;;;;;5129100;27;47851;-18
2021/12/23 03:57:12;;;;;;;3.97;3.47;;;9.60;34.90;;;;;;5129127;27;47354;-18
2021/12/23 03:59:39;;;;;;;5.10;3.50;;;9.60;34.90;;;;;;5128945;27;47291;-17
2021/12/23 04:02:06;;;;;;;4.87;3.67;;;9.60;34.90;;;;;;5129265;27;46911;-29
2021/12/23 04:04:34;;;;;;;4.87;3.90;;;9.50;35.00;;;;;;5128647;27;47010;-18
2021/12/23 04:07:01;;;;;;;4.77;3.73;;;9.50;34.90;;;;;;5129140;27;46818;-28
2021/12/23 04:09:27;;;;;;;5.10;3.70;;;9.50;34.90;;;;;;5129121;27;46913;-18
2021/12/23 04:11:54;;;;;;;5.10;3.70;;;9.50;34.90;;;;;;5129253;27;46910;-28
2021/12/23 04:14:21;;;;;;;5.50;4.37;;;9.50;34.90;;;;;;5128990;27;49084;-17
2021/12/23 04:16:47;;;;;;;4.93;4.00;;;9.50;34.90;;;;;;5128858;27;47247;-29
2021/12/23 04:19:14;;;;;;;4.33;3.93;;;9.50;35.00;;;;;;5128910;27;46943;-17
2021/12/23 04:21:42;;;;;;;5.23;4.10;;;9.50;34.90;;;;;;5128880;27;46965;-28
2021/12/23 04:24:09;;;;;;;6.23;4.17;;;9.50;35.00;;;;;;5128467;27;49010;-18
2021/12/23 04:26:37;;;;;;;5.93;4.30;;;9.40;34.90;;;;;;5128519;27;47574;-27
2021/12/23 04:29:04;;;;;;;5.07;3.90;;;9.40;35.00;;;;;;5128309;27;46860;-29
2021/12/23 04:31:30;;;;;;;4.77;4.07;;;9.40;35.00;;;;;;5128707;27;46855;-28
2021/12/23 04:33:57;;;;;;;5.40;4.00;;;9.40;35.10;;;;;;5128454;27;48071;-28
2021/12/23 04:36:26;;;;;;;4.43;3.80;;;9.40;35.10;;;;;;5128263;27;46734;-28
2021/12/23 04:38:54;;;;;;;4.70;3.97;;;9.40;35.10;;;;;;5127213;27;47178;-28
2021/12/23 04:41:20;;;;;;;7.10;4.73;;;9.40;35.10;;;;;;5128718;27;46899;-18
2021/12/23 04:43:47;;;;;;;6.87;4.00;;;9.40;35.00;;;;;;5128123;27;48808;-28
2021/12/23 04:46:14;;;;;;;5.70;4.03;;;9.30;35.00;;;;;;5128457;27;46876;-18
2021/12/23 04:48:41;;;;;;;5.17;4.03;;;9.30;35.00;;;;;;5128121;27;46809;-29
2021/12/23 04:51:07;;;;;;;5.70;4.27;;;9.30;35.00;;;;;;5128571;27;47271;-28
2021/12/23 04:53:34;;;;;;;5.60;4.30;;;9.30;35.00;;;;;;5128208;27;47928;-17
2021/12/23 04:56:02;;;;;;;5.87;4.23;;;9.30;35.00;;;;;;5128225;27;46888;-18
2021/12/23 04:58:29;;;;;;;6.40;3.90;;;9.30;35.10;;;;;;5128266;27;46746;-28
2021/12/23 05:00:55;;;;;;;6.23;4.10;;;9.30;35.10;;;;;;5128421;27;46836;-28
2021/12/23 05:03:23;;;;;;;6.77;4.33;;;9.30;35.10;;;;;;5127952;27;48981;-18
2021/12/23 05:05:50;;;;;;;5.30;3.90;;;9.30;35.00;;;;;;5127941;27;46868;-17
2021/12/23 05:08:17;;;;;;;5.63;4.33;;;9.20;35.00;;;;;;5127799;27;47089;-18
2021/12/23 05:10:44;;;;;;;5.17;4.10;;;9.20;35.00;;;;;;5127973;27;46782;-17
2021/12/23 05:13:12;;;;;;;4.37;3.97;;;9.20;35.00;;;;;;5128119;27;48252;-28
2021/12/23 05:15:39;;;;;;;6.63;4.10;;;9.20;35.10;;;;;;5127477;27;47275;-29
2021/12/23 05:18:06;;;;;;;5.87;4.20;;;9.20;35.10;;;;;;5128066;27;46892;-28
2021/12/23 05:20:32;;;;;;;5.60;4.00;;;9.20;35.10;;;;;;5127658;27;46775;-18
2021/12/23 05:22:59;;;;;;;5.70;4.07;;;9.20;35.10;;;;;;5127542;27;46738;-18
2021/12/23 05:25:26;;;;;;;5.83;4.00;;;9.20;35.10;;;;;;5127413;27;46746;-17
2021/12/23 05:27:54;;;;;;;5.10;3.90;;;9.10;35.10;;;;;;5127595;27;46845;-17
2021/12/23 05:30:23;;;;;;;6.13;4.13;;;9.10;35.10;;;;;;5127652;27;47296;-17
2021/12/23 05:32:50;;;;;;;6.10;4.20;;;9.10;35.10;;;;;;5127868;27;47787;-28
2021/12/23 05:35:18;;;;;;;6.70;4.23;;;9.10;35.20;;;;;;5127449;27;47145;-17
2021/12/23 05:37:44;;;;;;;6.60;4.47;;;9.10;35.20;;;;;;5127355;27;46797;-28
2021/12/23 05:40:13;;;;;;;5.60;4.30;;;9.10;35.20;;;;;;5127377;27;46820;-28
2021/12/23 05:42:39;;;;;;;4.93;4.40;;;9.10;35.20;;;;;;5127340;27;46803;-28
2021/12/23 05:45:07;;;;;;;5.90;4.37;;;9.10;35.30;;;;;;5126772;27;47114;-18
2021/12/23 05:47:35;;;;;;;6.33;4.50;;;9.00;35.20;;;;;;5127295;27;46931;-29
2021/12/23 05:50:01;;;;;;;5.83;4.10;;;9.00;35.20;;;;;;5126987;27;46890;-28
2021/12/23 05:52:28;;;;;;;5.57;4.27;;;9.00;35.20;;;;;;5127330;27;47915;-28
2021/12/23 05:54:56;;;;;;;5.93;4.27;;;9.00;35.20;;;;;;5126966;27;47113;-17
2021/12/23 05:57:22;;;;;;;5.67;4.20;;;9.00;35.20;;;;;;5127061;27;46916;-19
2021/12/23 05:59:49;;;;;;;4.83;4.30;;;9.00;35.20;;;;;;5127247;27;46867;-18
2021/12/23 06:02:16;;;;;;;6.50;4.13;;;9.00;35.20;;;;;;5126807;27;48707;-28
2021/12/23 06:04:44;;;;;;;6.07;4.13;;;9.00;35.30;;;;;;5126943;27;47158;-18
2021/12/23 06:07:10;;;;;;;5.57;4.07;;;9.00;35.20;;;;;;5127169;27;46880;-19
2021/12/23 06:09:37;;;;;;;6.40;4.20;;;9.00;35.20;;;;;;5126811;27;46913;-18
2021/12/23 06:12:05;;;;;;;6.77;5.00;;;8.90;35.30;;;;;;5126681;27;48893;-18
2021/12/23 06:14:31;;;;;;;5.13;4.40;;;8.90;35.30;;;;;;5126570;27;46876;-28
2021/12/23 06:16:58;;;;;;;4.37;3.97;;;8.90;35.40;;;;;;5127243;27;46871;-28
2021/12/23 06:19:25;;;;;;;6.70;4.13;;;8.90;35.40;;;;;;5127071;27;46894;-28
2021/12/23 06:21:53;;;;;;;6.50;4.43;;;8.90;35.40;;;;;;5126925;27;48132;-28
2021/12/23 06:24:19;;;;;;;6.30;4.77;;;8.90;35.40;;;;;;5126885;27;46892;-17
2021/12/23 06:26:46;;;;;;;5.27;4.30;;;8.90;35.30;;;;;;5126748;27;46845;-28
2021/12/23 06:29:13;;;;;;;5.47;4.40;;;8.90;35.40;;;;;;5126846;27;47016;-17
2021/12/23 06:31:39;;;;;;;5.97;4.60;;;8.90;35.40;;;;;;5126536;27;49072;-28
2021/12/23 06:34:06;;;;;;;5.93;4.13;;;8.90;35.40;;;;;;5126182;27;47469;-28
2021/12/23 06:36:33;;;;;;;6.13;4.90;;;8.90;35.40;;;;;;5126374;27;47018;-28
2021/12/23 06:39:01;;;;;;;5.23;4.30;;;8.90;35.40;;;;;;5126748;27;46958;-17
2021/12/23 06:41:27;;;;;;;6.47;4.53;;;8.80;35.30;;;;;;5125886;27;47854;-17
2021/12/23 06:43:54;;;;;;;7.33;4.63;;;8.80;35.40;;;;;;5126162;27;47178;-29
2021/12/23 06:46:21;;;;;;;6.50;4.67;;;8.80;35.50;;;;;;5126424;27;46981;-28
2021/12/23 06:48:48;;;;;;;5.20;4.70;;;8.80;35.50;;;;;;5126686;27;47011;-18
2021/12/23 06:51:14;;;;;;;5.83;4.30;;;8.80;35.50;;;;;;5126129;27;49059;-28
2021/12/23 06:53:41;;;;;;;6.27;4.70;;;8.80;35.60;;;;;;5125785;27;46962;-18
2021/12/23 06:56:11;;;;;;;5.50;4.50;;;8.80;35.50;;;;;;5126424;27;46787;-28
2021/12/23 06:58:39;;;;;;;7.20;4.70;;;8.80;35.60;;;;;;5126463;27;46989;-17
2021/12/23 07:01:05;;;;;;;6.40;4.53;;;8.70;35.50;;;;;;5127358;27;46935;-28
2021/12/23 07:03:48;;;;;;;6.40;4.07;;;8.70;35.60;;;;;;5130323;27;46830;-28
2021/12/23 07:06:19;;;;;;;6.10;4.47;;;8.70;35.60;;;;;;5130034;27;46849;-17
2021/12/23 07:08:46;;;;;;;5.10;4.07;;;8.70;35.70;;;;;;5130496;27;47052;-28
2021/12/23 07:11:14;;;;;;;4.13;3.70;;;8.70;35.80;;;;;;5130032;27;47931;-28
2021/12/23 07:13:41;;;;;;;6.87;4.30;;;8.70;35.70;;;;;;5129656;27;46994;-17
2021/12/23 07:16:08;;;;;;;6.93;4.53;;;8.70;35.60;;;;;;5130023;27;46775;-28
2021/12/23 07:18:34;;;;;;;4.77;3.70;;;8.70;35.60;;;;;;5129727;27;47359;-18
2021/12/23 07:21:01;;;;;;;5.33;4.03;;;8.70;35.60;;;;;;5129838;27;46920;-28
2021/12/23 07:23:28;;;;;;;5.80;4.00;;;8.70;35.60;;;;;;5129734;27;46833;-29
2021/12/23 07:25:54;;;;;;;4.93;3.97;;;8.70;35.60;;;;;;5130131;27;46891;-28
2021/12/23 07:28:22;;;;;;;4.37;3.93;;;8.70;35.70;;;;;;5129905;27;46906;-19
2021/12/23 07:30:49;;;;;;;4.73;3.90;;;8.70;35.60;;;;;;5129323;27;48039;-29
2021/12/23 07:33:16;;;;;;;6.13;4.13;;;8.70;35.70;;;;;;5129330;27;46746;-28
2021/12/23 07:35:42;;;;;;;4.40;3.57;;;8.60;35.60;;;;;;5129454;27;47224;-18
2021/12/23 07:38:09;;;;;;;4.90;3.47;;;8.60;35.50;;;;;;5129544;27;46981;-26
2021/12/23 07:40:36;;;;;;;5.30;3.57;;;8.70;35.70;;;;;;5129254;27;48847;-18
2021/12/23 07:43:20;;;;;;;4.73;3.67;;;8.70;35.60;;;;;;5129205;27;46983;-29
2021/12/23 07:45:48;;;;;;;6.03;3.43;;;8.70;35.60;;;;;;5129134;27;47233;-18
2021/12/23 07:48:15;;;;;;;4.67;4.10;;;8.70;35.60;;;;;;5129679;27;46882;-18
2021/12/23 07:50:41;;;;;;;5.90;3.50;;;8.70;35.60;;;;;;5129047;27;48865;-17
2021/12/23 07:53:08;;;;;;;4.63;3.20;;;8.70;35.60;;;;;;5129518;27;47409;-28
2021/12/23 07:55:38;;;;;;;4.73;3.33;;;8.70;35.80;;;;;;5129312;27;46912;-18
2021/12/23 07:58:04;;;;;;;6.70;3.67;;;8.60;35.60;;;;;;5129445;27;47217;-28
2021/12/23 08:00:32;;;;;;;4.17;3.23;;;8.60;35.70;;;;;;5129022;27;48849;-17
2021/12/23 08:03:00;;;;;;;5.33;3.60;;;8.60;35.70;;;;;;5129074;27;46928;-18
2021/12/23 08:05:27;;;;;;;4.00;3.23;;;8.70;35.70;;;;;;5128961;27;46862;-28
2021/12/23 08:07:54;;;;;;;4.30;3.50;;;8.70;35.80;;;;;;5129344;27;46837;-18
2021/12/23 08:10:21;;;;;;;4.70;3.37;;;8.70;35.60;;;;;;5128514;27;47069;-17
2021/12/23 08:12:48;;;;;;;5.00;3.10;;;8.70;35.60;;;;;;5128742;27;46985;-19
2021/12/23 08:15:14;;;;;;;4.67;3.40;;;8.70;35.60;;;;;;5128708;27;46817;-29
2021/12/23 08:17:41;;;;;;;4.20;3.23;;;8.70;35.70;;;;;;5128798;27;46906;-28
2021/12/23 08:20:10;;;;;;;4.67;3.20;;;8.70;35.70;;;;;;5128295;27;49070;-18
2021/12/23 08:22:37;;;;;;;3.97;2.97;;;8.70;35.80;;;;;;5128522;27;47079;-29
2021/12/23 08:25:04;;;;;;;5.13;3.30;;;8.70;35.60;;;;;;5128953;27;46989;-29
2021/12/23 08:27:31;;;;;;;4.77;3.10;;;8.70;35.70;;;;;;5129076;27;46917;-28
2021/12/23 08:29:58;;;;;;;3.07;2.77;;;8.70;35.60;;;;;;5128592;27;48880;-18
2021/12/23 08:32:24;;;;;;;3.50;2.97;;;8.70;35.60;;;;;;5128633;27;46797;-29
2021/12/23 08:34:51;;;;;;;3.00;2.60;;;8.70;35.80;;;;;;5128605;27;46892;-18
2021/12/23 08:37:19;;;;;;;3.50;2.73;;;8.80;35.70;;;;;;5128038;27;46925;-28
2021/12/23 08:39:47;;;;;;;3.70;2.70;;;8.70;35.80;;;;;;5128074;27;46876;-18
2021/12/23 08:42:14;;;;;;;5.10;3.30;;;8.80;35.70;;;;;;5128501;27;46920;-17
2021/12/23 08:44:40;;;;;;;3.20;2.90;;;8.70;35.60;;;;;;5127642;27;46817;-17
2021/12/23 08:47:07;;;;;;;2.97;2.67;;;8.70;35.80;;;;;;5128406;27;47094;-28
2021/12/23 08:49:34;;;;;;;3.63;2.90;;;8.70;35.70;;;;;;5128146;27;49084;-17
2021/12/23 08:52:01;;;;;;;3.73;2.90;;;8.70;36.40;;;;;;5128363;27;46930;-17
2021/12/23 08:54:29;;;;;;;4.07;2.73;;;8.80;35.70;;;;;;5126571;27;46927;-18
2021/12/23 08:56:56;;;;;;;3.30;2.90;;;8.70;35.70;;;;;;5126770;27;47208;-28
2021/12/23 08:59:22;;;;;;;4.90;3.37;;;8.70;35.80;;;;;;5127249;27;48111;-29
2021/12/23 09:01:49;;;;;;;3.53;2.80;;;8.70;35.90;;;;;;5127375;27;47094;-29
2021/12/23 09:04:16;;;;;;;4.70;3.17;;;8.70;35.90;;;;;;5127992;27;46957;-29
2021/12/23 09:06:43;;;;;;;3.23;2.80;;;8.80;35.90;;;;;;5127280;27;47162;-17
2021/12/23 09:09:10;;;;;;;3.07;2.73;;;8.70;35.90;;;;;;5127921;27;49002;-18
2021/12/23 09:11:38;;;;;;;3.17;2.60;;;8.70;36.40;;;;;;5127747;27;46805;-17
2021/12/23 09:14:05;;;;;;;3.77;3.00;;;8.70;35.90;;;;;;5126596;27;47042;-28
2021/12/23 09:16:31;;;;;;;3.10;2.80;;;8.70;36.00;;;;;;5127018;27;46940;-16
2021/12/23 09:18:58;;;;;;;4.13;3.23;;;8.80;35.90;;;;;;5127365;27;48199;-28
2021/12/23 09:21:25;;;;;;;4.40;2.90;;;8.80;36.10;;;;;;5127411;27;47026;-28
2021/12/23 09:23:51;;;;;;;3.13;2.57;;;8.70;36.00;;;;;;5127011;27;46794;-28
2021/12/23 09:26:18;;;;;;;3.10;2.80;;;8.80;36.10;;;;;;5128121;27;47351;-28
2021/12/23 09:28:57;;;;;;;3.40;2.77;;;8.80;36.20;;;;;;5127471;27;46907;-19
2021/12/23 09:34:08;;;;;;;3.30;2.77;;;8.80;36.20;;;;;;5125409;27;47010;-17
2021/12/23 09:36:35;;;;;;;4.87;2.63;;;8.80;36.20;;;;;;5128004;27;47247;-17
2021/12/23 09:39:02;;;;;;;2.87;2.57;;;8.80;36.20;;;;;;5127116;27;47971;-17
2021/12/23 09:41:28;;;;;;;5.03;2.67;;;8.80;36.20;;;;;;5127656;27;47642;-28
2021/12/23 09:43:58;;;;;;;3.30;2.57;;;8.80;36.20;;;;;;5127225;27;46968;-18
2021/12/23 09:46:25;;;;;;;4.53;3.00;;;8.80;36.20;;;;;;5127483;27;47129;-28
2021/12/23 09:48:52;;;;;;;2.87;2.53;;;8.80;36.10;;;;;;5127361;27;48872;-28
2021/12/23 09:51:20;;;;;;;3.80;2.93;;;8.80;36.20;;;;;;5119227;27;47049;-28
2021/12/23 09:53:47;;;;;;;3.43;2.67;;;8.80;36.10;;;;;;5123876;27;46813;-29
2021/12/23 09:56:14;;;;;;;3.63;2.73;;;8.80;36.20;;;;;;5106639;27;46934;-18
2021/12/23 09:58:41;;;;;;;3.23;2.00;;;8.80;36.00;;;;;;5105883;27;49006;-28
2021/12/23 10:01:09;;;;;;;4.23;3.33;;;8.80;36.00;;;;;;5106241;27;47429;-17
2021/12/23 10:03:37;;;;;;;3.83;2.73;;;8.80;36.00;;;;;;5107922;27;46872;-18
2021/12/23 10:06:03;;;;;;;3.17;2.83;;;8.80;36.10;;;;;;5125904;27;47131;-18
2021/12/23 10:08:30;;;;;;;4.47;3.03;;;8.90;36.10;;;;;;5125519;27;48019;-18
2021/12/23 10:11:02;;;;;;;3.20;2.53;;;8.80;36.20;;;;;;5125475;27;46900;-19
2021/12/23 10:33:11;;;;;;;3.20;2.33;;;9.00;36.30;;;;;;5123990;27;47009;-28
2021/12/23 10:38:24;;;;;;;2.80;2.43;;;9.00;36.20;;;;;;5123256;27;46994;-19
2021/12/23 10:40:52;;;;;;;2.80;2.47;;;9.00;36.20;;;;;;5126205;27;47796;-28
2021/12/23 10:43:25;;;;;;;2.33;2.13;;;9.00;36.30;;;;;;5126487;27;47325;-18
2021/12/23 10:45:55;;;;;;;3.47;2.60;;;9.00;36.20;;;;;;5126172;27;46875;-19
2021/12/23 10:48:25;;;;;;;2.87;2.20;;;9.00;36.30;;;;;;5126614;27;46848;-18
2021/12/23 10:50:57;;;;;;;2.87;2.17;;;9.00;36.20;;;;;;5126214;27;47837;-17
2021/12/23 10:53:39;;;;;;;2.47;2.10;;;9.10;36.30;;;;;;5126346;27;46830;-28
2021/12/23 10:59:07;;;;;;;2.90;2.57;;;9.10;36.30;;;;;;5123828;27;47064;-28
2021/12/23 11:01:36;;;;;;;2.90;2.30;;;9.10;36.30;;;;;;5126579;27;48073;-18
2021/12/23 11:04:05;;;;;;;3.20;2.50;;;9.10;36.30;;;;;;5126094;27;46924;-28
2021/12/23 11:06:33;;;;;;;3.33;2.43;;;9.10;36.20;;;;;;5125766;27;46780;-28
2021/12/23 11:09:14;;;;;;;2.40;2.00;;;9.10;36.10;;;;;;5125433;27;47013;-18
2021/12/23 11:12:13;;;;;;;2.53;2.33;;;9.10;36.20;;;;;;5126044;27;48031;-29
2021/12/23 11:39:44;;;;;;;2.17;1.97;;;9.30;36.10;;;;;;5122858;27;47130;-18
2021/12/23 11:42:17;;;;;;;2.40;2.20;;;9.30;36.00;;;;;;5126265;27;46915;-28
2021/12/23 11:44:43;;;;;;;2.13;1.97;;;9.40;36.10;;;;;;5125150;27;47030;-18
2021/12/23 11:47:13;;;;;;;2.83;2.13;;;9.40;36.00;;;;;;5126751;27;47245;-19
2021/12/23 11:49:43;;;;;;;2.47;2.27;;;9.40;36.00;;;;;;5129119;27;46858;-17
2021/12/23 11:52:11;;;;;;;3.53;2.37;;;9.40;36.00;;;;;;5129257;27;47108;-28
2021/12/23 11:54:40;;;;;;;2.73;2.20;;;9.40;36.00;;;;;;5128825;27;48000;-28
2021/12/23 11:57:08;;;;;;;3.17;2.23;;;9.50;35.90;;;;;;5129215;27;47171;-28
2021/12/23 11:59:36;;;;;;;2.37;2.17;;;9.50;36.00;;;;;;5129029;27;46998;-28
2021/12/23 12:02:11;;;;;;;2.40;2.20;;;9.50;36.00;;;;;;5129595;27;46969;-18
2021/12/23 12:04:38;;;;;;;2.23;2.03;;;9.50;36.00;;;;;;5128872;27;47479;-17
2021/12/23 12:07:14;;;;;;;3.10;2.20;;;9.50;35.80;;;;;;5129003;27;47212;-18
2021/12/23 12:09:54;;;;;;;2.10;1.90;;;9.50;35.90;;;;;;5128431;27;47024;-17
2021/12/23 12:12:23;;;;;;;1.97;1.80;;;9.50;35.90;;;;;;5129002;27;47228;-17
2021/12/23 12:14:51;;;;;;;2.27;2.07;;;9.60;35.90;;;;;;5128669;27;49213;-18
2021/12/23 12:17:40;;;;;;;2.23;2.03;;;9.60;35.90;;;;;;5128611;27;46773;-18
2021/12/23 12:20:26;;;;;;;2.80;2.20;;;9.60;35.90;;;;;;5128623;27;46843;-28
2021/12/23 12:22:59;;;;;;;2.37;2.00;;;9.60;36.00;;;;;;5129140;27;46888;-18
2021/12/23 12:25:52;;;;;;;2.20;1.87;;;9.60;35.90;;;;;;5128412;27;47836;-17
2021/12/23 12:28:22;;;;;;;2.30;2.10;;;9.60;35.80;;;;;;5128682;27;46907;-18
2021/12/23 12:30:50;;;;;;;2.50;2.00;;;9.60;35.90;;;;;;5128573;27;46846;-18
2021/12/23 12:33:38;;;;;;;3.10;1.77;;;9.60;35.90;;;;;;5128772;27;46851;-18
2021/12/23 12:36:07;;;;;;;2.33;1.80;;;9.60;36.00;;;;;;5128106;27;49108;-28
2021/12/23 12:38:36;;;;;;;2.67;2.03;;;9.60;36.00;;;;;;5128577;27;47050;-28
2021/12/23 12:41:04;;;;;;;1.70;1.60;;;9.60;35.80;;;;;;5128711;27;46922;-17
2021/12/23 12:43:34;;;;;;;2.57;2.10;;;9.60;36.00;;;;;;5128725;27;46910;-17
2021/12/23 12:46:01;;;;;;;3.03;1.87;;;9.60;36.00;;;;;;5128167;27;49072;-18
2021/12/23 12:49:06;;;;;;;2.20;2.00;;;9.60;36.00;;;;;;5128305;27;47535;-28
2021/12/23 12:51:36;;;;;;;1.73;1.63;;;9.70;36.10;;;;;;5128573;27;46873;-18
2021/12/23 12:54:06;;;;;;;2.87;2.10;;;9.70;36.10;;;;;;5128436;27;46873;-28
2021/12/23 12:56:34;;;;;;;2.07;1.60;;;9.70;36.20;;;;;;5128032;27;48613;-18
2021/12/23 12:59:01;;;;;;;2.23;1.80;;;9.70;36.30;;;;;;5126763;27;46978;-17
2021/12/23 13:01:31;;;;;;;2.33;1.90;;;9.70;36.20;;;;;;5127997;27;46913;-19
2021/12/23 13:03:59;;;;;;;1.90;1.80;;;9.70;36.20;;;;;;5127992;27;46871;-28
2021/12/23 13:06:28;;;;;;;2.40;2.17;;;9.70;36.40;;;;;;5128141;27;47829;-18
2021/12/23 13:09:05;;;;;;;2.60;1.80;;;9.70;36.30;;;;;;5127810;27;47241;-18
2021/12/23 13:11:31;;;;;;;1.97;1.83;;;9.70;36.30;;;;;;5128444;27;46792;-17
2021/12/23 13:14:01;;;;;;;1.83;1.70;;;9.70;36.40;;;;;;5128028;27;47071;-28
2021/12/23 13:16:28;;;;;;;2.33;1.97;;;9.70;36.40;;;;;;5127648;27;49181;-28
2021/12/23 13:19:13;;;;;;;1.70;1.60;;;9.70;36.40;;;;;;5127601;27;47045;-17
2021/12/23 13:21:41;;;;;;;2.00;1.90;;;9.70;36.50;;;;;;5127946;27;46792;-17
2021/12/23 13:24:10;;;;;;;1.70;1.60;;;9.80;36.60;;;;;;5109605;27;47241;-28
2021/12/23 13:26:37;;;;;;;1.90;1.73;;;9.80;36.60;;;;;;5107157;27;48115;-28
2021/12/23 13:29:06;;;;;;;1.77;1.60;;;9.80;36.50;;;;;;5106499;27;46861;-28
2021/12/23 13:31:33;;;;;;;1.80;1.70;;;9.80;36.60;;;;;;5106955;27;46750;-18
2021/12/23 13:34:01;;;;;;;1.90;1.70;;;9.80;36.50;;;;;;5107256;27;46961;-28
2021/12/23 13:36:29;;;;;;;1.50;1.40;;;9.80;36.50;;;;;;5106904;27;48753;-28
2021/12/23 13:38:57;;;;;;;4.30;1.97;;;9.80;36.60;;;;;;5106454;27;47040;-18
2021/12/23 13:41:27;;;;;;;2.10;1.60;;;9.80;36.50;;;;;;5106664;27;46843;-27
2021/12/23 13:43:55;;;;;;;2.87;1.80;;;9.90;36.40;;;;;;5106893;27;46917;-28
2021/12/23 13:46:23;;;;;;;2.77;2.00;;;9.80;36.60;;;;;;5106931;27;46908;-18
2021/12/23 13:48:55;;;;;;;1.83;1.73;;;9.80;36.70;;;;;;5106876;27;46907;-18
2021/12/23 13:51:23;;;;;;;2.20;1.70;;;9.80;36.70;;;;;;5106621;27;46810;-28
2021/12/23 13:53:55;;;;;;;2.17;1.97;;;9.90;36.60;;;;;;5106599;27;46972;-17
2021/12/23 13:56:22;;;;;;;2.00;1.90;;;9.90;36.60;;;;;;5106329;27;47947;-28
2021/12/23 13:58:50;;;;;;;2.13;1.80;;;9.90;36.60;;;;;;5106337;27;46835;-18
2021/12/23 14:01:17;;;;;;;1.60;1.50;;;9.90;36.50;;;;;;5106471;27;46849;-17